Time;durP1;ratioP1;P1;durP2;ratioP2;P2;SDS_P1;SDS_P2;PMS_P1;PMS_P2;Temp;Humidity;BMP_temperature;BMP_pressure;BME280_temperature;BME280_humidity;BME280_pressure;Samples;Min_cycle;Max_cycle;Signal;HPM_P1;HPM_P2
2022/07/13 00:01:57;;;;;;;1.00;0.90;;;26.50;69.70;;;;;;5014373;28;20049;-72
2022/07/13 00:04:22;;;;;;;1.25;1.00;;;26.50;69.70;;;;;;5014515;28;20037;-72
2022/07/13 00:06:48;;;;;;;1.40;0.80;;;26.50;69.70;;;;;;5014347;28;20028;-71
2022/07/13 00:09:13;;;;;;;1.08;0.65;;;26.50;69.70;;;;;;5014095;28;20018;-72
2022/07/13 00:11:39;;;;;;;0.98;0.70;;;26.40;69.70;;;;;;5014327;28;20042;-72
2022/07/13 00:14:05;;;;;;;1.42;0.80;;;26.50;69.80;;;;;;5014153;28;20025;-71
2022/07/13 00:16:30;;;;;;;2.00;0.93;;;26.40;69.70;;;;;;5014294;28;20022;-72
2022/07/13 00:18:56;;;;;;;1.58;1.15;;;26.40;69.70;;;;;;5013795;28;20132;-72
2022/07/13 00:21:21;;;;;;;2.22;0.90;;;26.40;69.60;;;;;;5014102;28;20026;-72
2022/07/13 00:23:47;;;;;;;0.90;0.80;;;26.50;69.80;;;;;;4996161;28;20041;-71
2022/07/13 00:26:12;;;;;;;1.20;1.10;;;26.40;69.70;;;;;;5013490;28;20076;-72
2022/07/13 00:28:38;;;;;;;0.80;0.60;;;26.50;69.80;;;;;;5014119;28;20101;-72
2022/07/13 00:31:03;;;;;;;2.35;0.90;;;26.40;69.70;;;;;;5013888;28;20493;-71
2022/07/13 00:33:29;;;;;;;0.95;0.85;;;26.40;69.70;;;;;;5013976;28;20045;-71
2022/07/13 00:35:55;;;;;;;0.88;0.70;;;26.40;69.80;;;;;;5014032;28;20052;-72
2022/07/13 00:38:20;;;;;;;2.00;0.90;;;26.40;69.70;;;;;;5013671;28;20033;-71
2022/07/13 00:40:46;;;;;;;1.75;1.10;;;26.40;69.70;;;;;;5014140;28;20517;-72
2022/07/13 00:43:11;;;;;;;1.33;0.85;;;26.40;69.70;;;;;;5012623;28;20036;-72
2022/07/13 00:45:37;;;;;;;1.10;1.00;;;26.40;69.70;;;;;;5013820;28;20479;-72
2022/07/13 00:48:03;;;;;;;1.35;0.77;;;26.40;69.70;;;;;;5013628;28;20048;-72
2022/07/13 00:50:29;;;;;;;1.00;0.70;;;26.40;69.70;;;;;;5013981;28;20120;-72
2022/07/13 00:52:55;;;;;;;1.65;0.82;;;26.40;69.60;;;;;;5012112;28;20386;-72
2022/07/13 00:55:21;;;;;;;0.80;0.60;;;26.40;69.70;;;;;;4995976;28;20467;-72
2022/07/13 00:57:46;;;;;;;1.83;0.80;;;26.40;69.70;;;;;;5012162;28;20028;-72
2022/07/13 01:00:14;;;;;;;1.02;0.93;;;26.40;69.70;;;;;;5013637;28;20041;-72
2022/07/13 01:02:42;;;;;;;1.10;0.90;;;26.40;69.70;;;;;;5013536;28;20025;-72
2022/07/13 01:05:09;;;;;;;1.42;1.15;;;26.40;69.70;;;;;;5013459;28;20033;-72
2022/07/13 01:07:35;;;;;;;1.55;1.08;;;26.40;69.70;;;;;;5013207;28;20022;-72
2022/07/13 01:10:05;;;;;;;1.35;1.10;;;26.40;69.80;;;;;;5013070;28;20037;-71
2022/07/13 01:12:31;;;;;;;1.08;0.80;;;26.40;69.60;;;;;;5013391;28;20025;-72
2022/07/13 01:14:58;;;;;;;1.50;0.95;;;26.40;69.80;;;;;;5013511;28;20069;-72
2022/07/13 01:17:25;;;;;;;6.25;1.30;;;26.30;69.70;;;;;;5013179;28;20018;-72
2022/07/13 01:19:51;;;;;;;4.00;1.35;;;26.40;69.70;;;;;;5013309;28;20022;-72
2022/07/13 01:22:21;;;;;;;2.03;1.60;;;26.40;69.70;;;;;;5012981;28;20380;-72
2022/07/13 01:24:49;;;;;;;0.85;0.77;;;26.40;69.60;;;;;;5013382;28;20068;-71
2022/07/13 01:27:16;;;;;;;2.97;1.50;;;26.40;69.70;;;;;;5013039;28;20923;-72
2022/07/13 01:29:42;;;;;;;1.17;0.75;;;26.40;69.50;;;;;;5013281;28;20022;-72
2022/07/13 01:32:08;;;;;;;1.15;1.05;;;26.40;69.70;;;;;;5013166;28;20022;-72
2022/07/13 01:34:33;;;;;;;2.75;1.00;;;26.40;69.70;;;;;;5013230;28;20058;-71
2022/07/13 01:37:00;;;;;;;1.92;0.75;;;26.40;69.70;;;;;;5012980;28;20029;-72
2022/07/13 01:39:25;;;;;;;2.38;0.98;;;26.40;69.70;;;;;;5015252;28;20107;-72
2022/07/13 01:41:51;;;;;;;2.67;1.30;;;26.40;69.70;;;;;;5017034;28;20487;-71
2022/07/13 01:44:17;;;;;;;2.92;1.77;;;26.40;69.60;;;;;;5016948;28;20034;-72
2022/07/13 01:46:42;;;;;;;4.95;1.52;;;26.40;69.60;;;;;;5016881;28;20352;-72
2022/07/13 01:49:08;;;;;;;2.22;1.25;;;26.40;69.50;;;;;;5016779;28;20024;-71
2022/07/13 01:51:34;;;;;;;2.30;1.38;;;26.40;69.40;;;;;;5016720;28;20486;-72
2022/07/13 01:54:00;;;;;;;4.10;1.13;;;26.40;69.40;;;;;;5016790;28;20030;-72
2022/07/13 01:56:26;;;;;;;1.90;1.30;;;26.40;69.40;;;;;;5017154;28;20029;-71
2022/07/13 01:58:51;;;;;;;3.47;1.52;;;26.40;69.40;;;;;;5016644;28;20073;-72
2022/07/13 02:01:17;;;;;;;1.92;1.33;;;26.40;69.20;;;;;;5017220;28;20085;-72
2022/07/13 02:03:43;;;;;;;2.33;1.05;;;26.40;69.30;;;;;;5016605;28;20026;-72
2022/07/13 02:06:08;;;;;;;2.42;1.52;;;26.40;69.40;;;;;;5016445;28;20105;-71
2022/07/13 02:08:34;;;;;;;1.70;1.40;;;26.40;69.10;;;;;;5016941;28;20446;-72
2022/07/13 02:11:00;;;;;;;1.48;1.10;;;26.40;69.10;;;;;;5016645;28;20034;-72
2022/07/13 02:13:26;;;;;;;2.05;1.20;;;26.40;68.00;;;;;;5016267;28;20018;-72
2022/07/13 02:15:51;;;;;;;3.42;1.30;;;26.30;68.00;;;;;;5015354;28;20029;-72
2022/07/13 02:18:17;;;;;;;1.73;1.40;;;26.40;68.40;;;;;;5016308;28;20487;-72
2022/07/13 02:20:43;;;;;;;2.15;1.40;;;26.30;68.10;;;;;;5016602;28;20531;-72
2022/07/13 02:23:09;;;;;;;3.10;1.38;;;26.30;68.90;;;;;;5016591;28;20041;-72
2022/07/13 02:25:35;;;;;;;3.35;1.40;;;26.40;68.90;;;;;;5016769;28;20022;-72
2022/07/13 02:28:00;;;;;;;1.90;1.23;;;26.40;68.40;;;;;;5014644;28;20061;-72
2022/07/13 02:30:26;;;;;;;2.15;1.33;;;26.40;68.70;;;;;;5011420;28;20058;-72
2022/07/13 02:32:52;;;;;;;1.55;1.35;;;26.40;68.00;;;;;;5014948;28;20072;-72
2022/07/13 02:35:18;;;;;;;1.10;0.90;;;26.30;67.60;;;;;;5011832;28;20439;-72
2022/07/13 02:37:43;;;;;;;1.40;1.20;;;26.30;68.60;;;;;;5009046;28;20026;-72
2022/07/13 02:40:11;;;;;;;1.33;1.20;;;26.40;67.80;;;;;;4994026;28;20044;-72
2022/07/13 02:42:37;;;;;;;4.13;1.50;;;26.30;67.70;;;;;;5013458;28;20033;-72
2022/07/13 02:45:04;;;;;;;2.03;1.25;;;26.40;67.60;;;;;;5015821;28;20434;-72
2022/07/13 02:47:30;;;;;;;2.17;0.93;;;26.30;67.70;;;;;;5015753;28;20100;-71
2022/07/13 02:49:55;;;;;;;4.15;1.13;;;26.40;67.70;;;;;;5015308;28;20073;-72
2022/07/13 02:52:21;;;;;;;2.40;1.33;;;26.30;68.40;;;;;;5015836;28;20033;-72
2022/07/13 02:54:46;;;;;;;2.15;1.30;;;26.30;67.80;;;;;;5015717;28;20026;-71
2022/07/13 02:57:12;;;;;;;4.03;1.40;;;26.30;66.80;;;;;;5015617;28;20056;-72
2022/07/13 02:59:38;;;;;;;1.67;1.27;;;26.40;67.70;;;;;;5015561;28;20104;-72
2022/07/13 03:02:05;;;;;;;4.35;1.67;;;26.30;67.90;;;;;;5015265;28;20044;-72
2022/07/13 03:04:32;;;;;;;4.80;1.27;;;26.30;67.00;;;;;;5015619;28;20109;-72
2022/07/13 03:06:57;;;;;;;1.80;1.13;;;26.30;67.00;;;;;;5015818;28;20050;-72
2022/07/13 03:09:23;;;;;;;2.38;1.48;;;26.30;67.50;;;;;;5015495;28;20065;-72
2022/07/13 03:11:48;;;;;;;3.20;1.10;;;26.30;67.30;;;;;;5015360;28;20037;-72
2022/07/13 03:14:14;;;;;;;1.30;1.20;;;26.30;67.10;;;;;;5015615;28;20030;-71
2022/07/13 03:16:40;;;;;;;1.67;1.30;;;26.30;66.90;;;;;;5015262;28;20014;-72
2022/07/13 03:19:07;;;;;;;2.00;1.33;;;26.30;67.80;;;;;;5015394;28;20379;-72
2022/07/13 03:21:32;;;;;;;1.40;0.93;;;26.30;67.20;;;;;;5015259;28;20018;-72
2022/07/13 03:23:58;;;;;;;1.95;1.20;;;26.30;66.70;;;;;;5015417;28;20056;-72
2022/07/13 03:26:24;;;;;;;2.88;0.90;;;26.30;67.30;;;;;;5015126;28;20376;-72
2022/07/13 03:28:50;;;;;;;2.85;1.02;;;26.30;68.20;;;;;;5015320;28;20040;-72
2022/07/13 03:31:17;;;;;;;3.10;1.23;;;26.30;67.60;;;;;;5014650;28;20026;-72
2022/07/13 03:33:42;;;;;;;3.03;1.30;;;26.30;67.40;;;;;;5015201;28;20026;-72
2022/07/13 03:36:08;;;;;;;1.77;1.10;;;26.30;66.60;;;;;;5014888;28;20022;-72
2022/07/13 03:38:34;;;;;;;4.32;1.30;;;26.30;66.60;;;;;;5015066;28;20041;-71
2022/07/13 03:41:00;;;;;;;3.00;1.40;;;26.30;66.50;;;;;;5014918;28;20037;-72
2022/07/13 03:43:25;;;;;;;1.88;1.20;;;26.30;66.50;;;;;;5014722;28;20092;-71
2022/07/13 03:45:51;;;;;;;4.60;1.58;;;26.30;67.20;;;;;;5014384;28;20026;-71
2022/07/13 03:48:17;;;;;;;1.92;0.90;;;26.30;66.10;;;;;;5014895;28;20026;-72
2022/07/13 03:50:47;;;;;;;2.15;1.30;;;26.30;66.30;;;;;;5014646;28;20020;-71
2022/07/13 03:53:13;;;;;;;4.10;1.30;;;26.20;66.40;;;;;;5014654;28;20021;-72
2022/07/13 03:55:40;;;;;;;1.23;0.95;;;26.20;66.80;;;;;;5014707;28;20054;-72
2022/07/13 03:58:06;;;;;;;1.50;0.90;;;26.20;67.10;;;;;;5014424;28;20109;-72
2022/07/13 04:00:32;;;;;;;5.72;1.40;;;26.20;66.40;;;;;;5013831;28;20546;-72
2022/07/13 04:02:58;;;;;;;3.25;1.20;;;26.30;66.00;;;;;;5014296;28;20018;-72
2022/07/13 04:05:24;;;;;;;2.35;1.20;;;26.30;66.20;;;;;;5014371;28;20054;-72
2022/07/13 04:07:50;;;;;;;1.33;1.10;;;26.20;65.90;;;;;;5014352;28;20510;-72
2022/07/13 04:10:18;;;;;;;3.55;1.30;;;26.20;66.00;;;;;;5014342;28;20057;-72
2022/07/13 04:12:44;;;;;;;3.47;1.27;;;26.20;66.10;;;;;;5014295;28;20022;-71
2022/07/13 04:15:11;;;;;;;2.28;1.20;;;26.20;66.20;;;;;;5014003;28;20026;-71
2022/07/13 04:17:36;;;;;;;4.50;1.30;;;26.20;66.20;;;;;;5014246;28;20095;-72
2022/07/13 04:20:03;;;;;;;2.60;1.13;;;26.20;66.00;;;;;;5014197;28;20418;-71
2022/07/13 04:22:29;;;;;;;2.78;1.30;;;26.20;66.40;;;;;;5014067;28;20014;-71
2022/07/13 04:24:55;;;;;;;7.35;1.40;;;26.20;66.20;;;;;;5014297;28;20109;-71
2022/07/13 04:27:20;;;;;;;4.28;1.58;;;26.20;65.90;;;;;;5014070;28;20159;-72
2022/07/13 04:29:46;;;;;;;5.78;1.50;;;26.20;65.60;;;;;;5013813;28;20030;-71
2022/07/13 04:32:11;;;;;;;4.05;1.45;;;26.20;65.60;;;;;;5014107;28;20485;-72
2022/07/13 04:34:37;;;;;;;2.72;1.67;;;26.20;65.70;;;;;;5014546;28;20097;-72
2022/07/13 04:37:03;;;;;;;2.13;1.33;;;26.20;65.80;;;;;;5014432;28;20033;-73
2022/07/13 04:39:28;;;;;;;3.25;1.25;;;26.20;66.10;;;;;;5013880;28;20126;-72
2022/07/13 04:41:54;;;;;;;1.75;1.40;;;26.20;66.00;;;;;;5012622;28;20029;-72
2022/07/13 04:44:20;;;;;;;2.80;1.58;;;26.20;65.90;;;;;;5013363;28;20116;-72
2022/07/13 04:46:46;;;;;;;1.42;1.15;;;26.20;66.20;;;;;;5013727;28;20122;-72
2022/07/13 04:49:11;;;;;;;4.72;1.50;;;26.20;67.10;;;;;;4996092;28;20457;-72
2022/07/13 04:51:37;;;;;;;1.63;1.13;;;26.20;66.60;;;;;;5013619;28;20097;-72
2022/07/13 04:54:02;;;;;;;1.13;1.00;;;26.20;66.60;;;;;;5013821;28;20053;-73
2022/07/13 04:56:28;;;;;;;3.20;1.42;;;26.20;66.90;;;;;;5013505;28;20471;-72
2022/07/13 04:58:54;;;;;;;2.70;1.23;;;26.20;66.20;;;;;;5013313;28;20108;-73
2022/07/13 05:01:19;;;;;;;43.63;4.43;;;26.20;66.70;;;;;;5012794;28;20479;-72
2022/07/13 05:03:45;;;;;;;3.22;1.00;;;26.20;67.50;;;;;;5013286;28;20030;-73
2022/07/13 05:06:13;;;;;;;1.67;0.98;;;26.20;67.40;;;;;;4994634;28;20077;-72
2022/07/13 05:08:39;;;;;;;2.75;1.35;;;26.20;67.70;;;;;;5011774;28;20030;-72
2022/07/13 05:11:05;;;;;;;4.93;1.23;;;26.20;67.60;;;;;;5013803;28;20039;-72
2022/07/13 05:13:31;;;;;;;3.58;1.63;;;26.20;67.00;;;;;;5013023;28;20021;-71
2022/07/13 05:15:57;;;;;;;3.55;1.40;;;26.20;67.70;;;;;;5013596;28;20022;-71
2022/07/13 05:18:22;;;;;;;3.67;1.58;;;26.20;67.50;;;;;;5013117;28;20479;-71
2022/07/13 05:20:48;;;;;;;3.35;1.17;;;26.20;67.90;;;;;;5013588;28;20537;-71
2022/07/13 05:23:14;;;;;;;4.50;1.70;;;26.20;67.80;;;;;;5013266;28;20520;-71
2022/07/13 05:25:39;;;;;;;5.22;1.67;;;26.20;67.90;;;;;;5013268;28;20065;-71
2022/07/13 05:28:05;;;;;;;3.33;1.50;;;26.20;68.50;;;;;;5012876;28;20026;-71
2022/07/13 05:30:31;;;;;;;2.55;1.80;;;26.20;68.00;;;;;;5013164;28;20026;-71
2022/07/13 05:32:56;;;;;;;5.57;1.85;;;26.20;68.40;;;;;;5013018;28;20049;-71
2022/07/13 05:35:22;;;;;;;4.90;1.65;;;26.20;68.40;;;;;;5011964;28;20033;-71
2022/07/13 05:37:47;;;;;;;3.38;1.52;;;26.20;68.20;;;;;;5013002;28;20022;-71
2022/07/13 05:40:13;;;;;;;4.60;1.63;;;26.20;68.50;;;;;;5013062;28;20034;-71
2022/07/13 05:42:39;;;;;;;3.35;2.33;;;26.20;68.30;;;;;;5012718;28;20030;-71
2022/07/13 05:45:05;;;;;;;6.03;2.70;;;26.20;68.30;;;;;;5013113;28;20381;-71
2022/07/13 05:47:31;;;;;;;8.15;2.50;;;26.20;68.60;;;;;;5012729;28;20472;-71
2022/07/13 05:49:57;;;;;;;7.35;2.90;;;26.20;68.60;;;;;;5013267;28;20034;-71
2022/07/13 05:52:22;;;;;;;9.35;2.72;;;26.10;68.70;;;;;;5013289;28;20025;-71
2022/07/13 05:54:48;;;;;;;7.97;3.20;;;26.20;69.10;;;;;;5013311;28;20056;-70
2022/07/13 05:57:13;;;;;;;6.60;3.30;;;26.10;69.10;;;;;;5012958;28;20514;-71
2022/07/13 05:59:39;;;;;;;4.90;2.45;;;26.10;70.00;;;;;;5012939;28;20527;-71
2022/07/13 06:02:05;;;;;;;6.63;2.60;;;26.10;69.50;;;;;;5013108;28;20029;-71
2022/07/13 06:04:30;;;;;;;6.22;3.35;;;26.10;69.60;;;;;;5012658;28;20026;-71
2022/07/13 06:06:56;;;;;;;5.40;3.22;;;26.10;69.70;;;;;;5012923;28;20033;-71
2022/07/13 06:09:22;;;;;;;3.33;1.92;;;26.10;69.80;;;;;;5012570;28;20468;-71
2022/07/13 06:11:47;;;;;;;6.57;2.70;;;26.00;69.70;;;;;;5012367;28;20379;-71
2022/07/13 06:14:13;;;;;;;2.55;2.13;;;26.00;69.80;;;;;;5012584;28;20104;-71
2022/07/13 06:16:39;;;;;;;5.70;2.35;;;26.00;69.80;;;;;;5012892;28;20022;-71
2022/07/13 06:19:05;;;;;;;4.55;2.65;;;26.00;70.00;;;;;;5012661;28;20030;-71
2022/07/13 06:21:30;;;;;;;4.18;1.02;;;26.00;70.00;;;;;;5012769;28;20022;-71
2022/07/13 06:23:56;;;;;;;2.53;1.38;;;26.00;70.00;;;;;;5012882;28;20077;-71
2022/07/13 06:26:22;;;;;;;2.22;1.08;;;26.00;70.10;;;;;;5015921;28;20022;-71
2022/07/13 06:28:48;;;;;;;1.70;1.30;;;26.00;70.10;;;;;;5016108;28;20022;-71
2022/07/13 06:31:13;;;;;;;1.92;1.10;;;26.00;70.10;;;;;;5016474;28;20081;-71
2022/07/13 06:33:41;;;;;;;1.92;1.20;;;26.00;70.10;;;;;;5016188;28;20030;-71
2022/07/13 06:36:07;;;;;;;3.38;0.90;;;26.00;70.10;;;;;;5016604;28;20022;-72
2022/07/13 06:38:33;;;;;;;1.20;0.90;;;26.10;70.20;;;;;;5016019;28;20022;-72
2022/07/13 06:40:58;;;;;;;1.60;1.20;;;26.10;70.20;;;;;;5015770;28;20037;-72
2022/07/13 06:43:25;;;;;;;1.65;1.10;;;26.10;70.30;;;;;;5015880;28;20483;-72
2022/07/13 06:45:50;;;;;;;3.42;1.15;;;26.10;70.30;;;;;;5016045;28;20018;-72
2022/07/13 06:48:16;;;;;;;1.95;1.15;;;26.10;70.30;;;;;;5015856;28;20030;-72
2022/07/13 06:50:41;;;;;;;1.55;1.02;;;26.10;70.30;;;;;;5014613;28;20018;-72
2022/07/13 06:53:07;;;;;;;1.75;1.10;;;26.10;70.30;;;;;;5015837;28;20149;-72
2022/07/13 06:55:34;;;;;;;3.65;1.38;;;26.10;70.40;;;;;;5015447;28;20022;-72
2022/07/13 06:57:59;;;;;;;2.38;1.20;;;26.10;70.50;;;;;;5015965;28;20088;-72
2022/07/13 07:00:25;;;;;;;3.10;1.45;;;26.10;70.50;;;;;;5015660;28;20029;-72
2022/07/13 07:02:50;;;;;;;1.30;1.20;;;26.10;70.50;;;;;;5015801;28;20037;-72
2022/07/13 07:05:16;;;;;;;1.30;0.80;;;26.10;70.60;;;;;;5015551;28;20514;-72
2022/07/13 07:07:42;;;;;;;1.95;1.33;;;26.10;70.60;;;;;;5015556;28;20486;-72
2022/07/13 07:10:09;;;;;;;1.60;1.00;;;26.10;70.60;;;;;;5015030;28;20104;-72
2022/07/13 07:12:35;;;;;;;1.52;0.93;;;26.10;70.70;;;;;;5015321;28;20022;-72
2022/07/13 07:15:01;;;;;;;1.98;1.20;;;26.10;70.80;;;;;;5015563;28;20045;-72
2022/07/13 07:17:27;;;;;;;2.25;1.25;;;26.10;70.90;;;;;;5013991;28;20108;-71
2022/07/13 07:19:58;;;;;;;2.45;1.10;;;26.10;70.90;;;;;;5015678;28;20124;-72
2022/07/13 07:22:24;;;;;;;1.98;1.27;;;26.10;70.90;;;;;;5015376;28;20072;-71
2022/07/13 07:24:50;;;;;;;1.73;1.40;;;26.10;70.90;;;;;;5014801;28;20059;-72
2022/07/13 07:27:16;;;;;;;2.08;1.42;;;26.10;71.50;;;;;;5015447;28;20018;-71
2022/07/13 07:29:42;;;;;;;1.25;1.10;;;26.10;70.90;;;;;;5014916;28;20026;-71
2022/07/13 07:32:07;;;;;;;2.05;1.13;;;26.10;71.00;;;;;;5015278;28;20029;-71
2022/07/13 07:34:33;;;;;;;1.70;1.35;;;26.10;71.00;;;;;;5015146;28;20022;-71
2022/07/13 07:36:59;;;;;;;1.50;1.20;;;26.10;71.00;;;;;;5014202;28;20026;-71
2022/07/13 07:39:25;;;;;;;1.35;0.90;;;26.10;71.00;;;;;;5014881;28;20124;-71
2022/07/13 07:41:51;;;;;;;1.75;1.27;;;26.10;71.00;;;;;;5014979;28;20022;-72
2022/07/13 07:44:18;;;;;;;1.40;1.08;;;26.10;71.00;;;;;;5014758;28;20030;-71
2022/07/13 07:46:44;;;;;;;1.95;1.17;;;26.10;71.10;;;;;;5014766;28;20104;-72
2022/07/13 07:49:10;;;;;;;1.77;1.05;;;26.10;71.00;;;;;;5014864;28;20185;-71
2022/07/13 07:51:35;;;;;;;1.67;1.10;;;26.10;71.00;;;;;;5015068;28;20014;-71
2022/07/13 07:54:01;;;;;;;1.50;1.10;;;26.10;71.00;;;;;;5014352;28;20037;-71
2022/07/13 07:56:26;;;;;;;2.13;1.05;;;26.10;71.10;;;;;;5014629;28;20022;-71
2022/07/13 07:58:52;;;;;;;1.50;1.13;;;26.10;71.10;;;;;;5013393;28;20561;-71
2022/07/13 08:01:18;;;;;;;1.70;1.10;;;26.10;71.30;;;;;;5014514;28;20491;-71
2022/07/13 08:03:43;;;;;;;3.33;1.27;;;26.10;71.30;;;;;;5014578;28;20026;-71
2022/07/13 08:06:09;;;;;;;3.05;1.20;;;26.10;71.30;;;;;;5014248;28;20033;-71
2022/07/13 08:08:36;;;;;;;2.30;0.93;;;26.10;71.30;;;;;;5014020;28;20026;-72
2022/07/13 08:11:03;;;;;;;3.85;1.20;;;26.10;71.40;;;;;;5013216;28;20030;-71
2022/07/13 08:13:29;;;;;;;2.38;1.10;;;26.10;71.40;;;;;;5014286;28;20490;-71
2022/07/13 08:15:55;;;;;;;1.48;1.10;;;26.10;71.50;;;;;;5014169;28;20479;-72
2022/07/13 08:18:21;;;;;;;1.42;1.00;;;26.10;71.40;;;;;;5014208;28;20071;-71
2022/07/13 08:20:46;;;;;;;1.83;1.10;;;26.10;72.00;;;;;;5013864;28;20030;-71
2022/07/13 08:25:56;;;;;;;1.30;0.90;;;26.10;71.40;;;;;;5014028;28;20057;-71
2022/07/13 08:28:22;;;;;;;1.92;0.90;;;26.10;71.50;;;;;;5013995;28;20054;-71
2022/07/13 08:30:47;;;;;;;1.55;1.10;;;26.10;71.40;;;;;;5013948;28;20029;-71
2022/07/13 08:33:13;;;;;;;1.38;1.13;;;26.00;71.40;;;;;;5014006;28;20022;-72
2022/07/13 08:38:40;;;;;;;1.10;0.90;;;26.10;71.50;;;;;;5013721;28;20112;-71
2022/07/13 08:41:06;;;;;;;1.17;0.90;;;26.40;70.50;;;;;;5014027;28;20089;-71
2022/07/13 08:43:33;;;;;;;1.10;0.90;;;26.50;70.00;;;;;;5013837;28;20042;-71
2022/07/13 08:46:02;;;;;;;1.90;1.00;;;26.60;69.90;;;;;;5013630;28;20081;-71
2022/07/13 08:48:31;;;;;;;1.17;0.80;;;26.60;69.90;;;;;;5005527;28;20112;-71
2022/07/13 08:50:57;;;;;;;1.45;0.88;;;26.60;69.90;;;;;;5013699;28;20361;-71
2022/07/13 08:53:24;;;;;;;2.33;0.93;;;26.60;69.80;;;;;;5013826;28;20022;-71
2022/07/13 08:55:50;;;;;;;1.73;0.80;;;26.50;69.70;;;;;;4996181;28;20379;-71
2022/07/13 08:58:16;;;;;;;1.20;0.85;;;26.60;69.80;;;;;;5013771;28;20085;-72
2022/07/13 09:00:43;;;;;;;1.30;0.88;;;26.50;69.80;;;;;;5013689;28;20037;-72
2022/07/13 09:03:11;;;;;;;1.20;0.60;;;26.60;69.80;;;;;;5013550;28;20030;-72
2022/07/13 09:05:38;;;;;;;1.67;1.00;;;26.50;69.70;;;;;;5013288;28;20443;-72
2022/07/13 09:08:06;;;;;;;2.50;0.90;;;26.50;69.70;;;;;;5013380;28;20022;-72
2022/07/13 09:10:49;;;;;;;1.38;0.90;;;26.50;69.80;;;;;;5013462;28;20117;-73
2022/07/13 09:13:35;;;;;;;1.20;0.82;;;26.50;69.80;;;;;;5013398;28;20037;-72
2022/07/13 09:16:13;;;;;;;1.10;0.90;;;26.50;69.40;;;;;;5013753;28;20112;-72
2022/07/13 09:18:39;;;;;;;1.30;0.88;;;26.50;69.60;;;;;;5013130;28;20034;-72
2022/07/13 09:21:05;;;;;;;1.33;1.00;;;26.50;69.80;;;;;;5012986;28;20052;-71
2022/07/13 09:23:30;;;;;;;0.93;0.80;;;26.50;69.80;;;;;;5013296;28;20104;-71
2022/07/13 09:25:56;;;;;;;1.52;0.88;;;26.50;69.80;;;;;;5013451;28;20117;-71
2022/07/13 09:28:22;;;;;;;2.08;1.20;;;26.50;69.80;;;;;;5012011;28;20033;-71
2022/07/13 09:30:48;;;;;;;1.42;0.73;;;26.50;69.90;;;;;;5013283;28;20018;-71
2022/07/13 09:33:13;;;;;;;1.63;0.98;;;26.50;69.90;;;;;;5013138;28;20026;-71
2022/07/13 09:35:39;;;;;;;2.05;1.15;;;26.50;69.80;;;;;;5012938;28;20032;-71
2022/07/13 09:38:05;;;;;;;0.88;0.75;;;26.50;69.90;;;;;;5012799;28;20656;-71
2022/07/13 09:40:30;;;;;;;1.63;1.00;;;26.50;69.90;;;;;;5013306;28;20423;-71
2022/07/13 09:48:25;;;;;;;0.90;0.63;;;26.50;69.80;;;;;;5013024;28;20052;-71
2022/07/13 09:50:55;;;;;;;1.65;0.85;;;26.50;69.80;;;;;;5013131;28;20475;-71
2022/07/13 09:53:31;;;;;;;1.52;0.80;;;26.50;69.80;;;;;;5013002;28;20483;-71
2022/07/13 09:56:03;;;;;;;1.00;0.73;;;26.60;69.60;;;;;;5013040;28;20034;-71
2022/07/13 09:58:29;;;;;;;;;;;26.60;69.90;;;;;;5013217;28;20487;-71
2022/07/13 10:00:56;;;;;;;1.30;0.68;;;26.50;69.00;;;;;;4998497;28;19916;-71
2022/07/13 10:03:23;;;;;;;0.93;0.77;;;26.50;69.90;;;;;;5016527;28;20036;-71
2022/07/13 10:05:51;;;;;;;1.50;1.05;;;26.50;69.80;;;;;;5016779;28;20033;-71
2022/07/13 10:08:18;;;;;;;2.60;0.65;;;26.50;69.80;;;;;;4998973;28;20387;-71
2022/07/13 10:10:45;;;;;;;1.17;0.82;;;26.60;69.80;;;;;;5016652;28;20030;-71
2022/07/13 10:13:12;;;;;;;1.27;0.70;;;26.60;69.80;;;;;;5016596;28;20029;-71
2022/07/13 10:15:39;;;;;;;1.50;1.00;;;26.60;69.80;;;;;;5016771;28;20494;-71
2022/07/13 10:18:07;;;;;;;1.75;0.90;;;26.60;69.70;;;;;;5016482;28;20467;-71
2022/07/13 10:20:35;;;;;;;0.80;0.65;;;26.60;69.70;;;;;;5016777;28;20097;-71
2022/07/13 10:23:00;;;;;;;0.85;0.65;;;26.60;69.70;;;;;;5016563;28;20026;-72
2022/07/13 10:25:41;;;;;;;1.23;0.70;;;26.60;69.70;;;;;;5016286;28;20026;-71
2022/07/13 10:28:09;;;;;;;0.80;0.63;;;26.60;69.30;;;;;;5016191;28;20021;-71
2022/07/13 10:30:35;;;;;;;1.35;0.93;;;26.60;69.60;;;;;;5016306;28;20026;-71
2022/07/13 10:33:20;;;;;;;0.93;0.50;;;26.60;69.60;;;;;;5015922;28;20513;-71
2022/07/13 10:35:57;;;;;;;1.50;0.88;;;26.60;69.20;;;;;;5016166;28;20022;-71
2022/07/13 10:38:27;;;;;;;1.23;0.60;;;26.60;69.60;;;;;;4998421;28;20018;-71
2022/07/13 10:41:20;;;;;;;1.02;0.77;;;26.60;69.70;;;;;;5016206;28;20040;-71
2022/07/13 10:44:40;;;;;;;1.23;0.70;;;26.70;69.30;;;;;;5008667;28;20050;-71
2022/07/13 10:47:08;;;;;;;0.90;0.73;;;26.70;69.00;;;;;;5016057;28;20030;-71
2022/07/13 10:49:35;;;;;;;0.93;0.60;;;26.70;69.70;;;;;;5016277;28;20034;-71
2022/07/13 10:52:25;;;;;;;1.30;0.98;;;26.70;69.70;;;;;;5016245;28;20021;-72
2022/07/13 10:55:11;;;;;;;0.70;0.60;;;26.70;69.20;;;;;;5015932;28;20053;-72
2022/07/13 10:57:39;;;;;;;1.35;0.75;;;26.70;69.30;;;;;;5015907;28;20381;-71
2022/07/13 11:00:23;;;;;;;1.30;0.55;;;26.70;69.60;;;;;;5015725;28;20073;-72
2022/07/13 11:02:54;;;;;;;0.88;0.70;;;26.70;69.30;;;;;;5015711;28;20023;-72
2022/07/13 11:05:24;;;;;;;1.30;0.80;;;26.80;69.70;;;;;;5015468;28;20029;-72
2022/07/13 11:07:51;;;;;;;0.77;0.60;;;26.70;69.50;;;;;;5015600;28;20153;-72
2022/07/13 11:10:30;;;;;;;1.00;0.65;;;26.80;69.60;;;;;;5015371;28;20026;-71
2022/07/13 11:13:00;;;;;;;0.70;0.57;;;26.80;69.30;;;;;;5015403;28;20479;-72
2022/07/13 11:15:45;;;;;;;0.95;0.80;;;26.80;69.60;;;;;;5015228;28;20028;-72
2022/07/13 11:18:33;;;;;;;1.77;0.75;;;26.80;69.10;;;;;;5015391;28;20108;-72
2022/07/13 11:21:12;;;;;;;1.48;1.00;;;26.80;69.10;;;;;;5015441;28;20123;-72
2022/07/13 11:26:38;;;;;;;1.08;0.77;;;26.80;69.40;;;;;;5015372;28;20036;-71
2022/07/13 11:29:33;;;;;;;2.08;0.60;;;26.80;69.50;;;;;;5015361;28;20033;-72
2022/07/13 11:32:00;;;;;;;1.33;0.82;;;26.80;69.20;;;;;;5014840;28;20026;-71
2022/07/13 11:34:29;;;;;;;1.90;0.68;;;26.80;69.40;;;;;;5015229;28;20026;-71
2022/07/13 11:36:57;;;;;;;0.80;0.68;;;26.80;69.50;;;;;;5014946;28;20105;-71
2022/07/13 11:39:27;;;;;;;1.10;0.70;;;26.80;69.50;;;;;;5015011;28;20032;-71
2022/07/13 11:41:54;;;;;;;0.90;0.63;;;26.90;69.40;;;;;;4997022;28;20100;-71
2022/07/13 11:44:26;;;;;;;1.00;0.65;;;26.90;69.40;;;;;;5014562;28;20037;-71
2022/07/13 11:46:54;;;;;;;0.70;0.60;;;26.90;69.30;;;;;;4997190;28;20022;-71
2022/07/13 11:49:21;;;;;;;1.20;0.85;;;26.90;69.40;;;;;;5014890;28;20077;-71
2022/07/13 11:51:46;;;;;;;0.80;0.60;;;26.90;69.30;;;;;;5014689;28;20022;-71
2022/07/13 11:54:14;;;;;;;1.02;0.85;;;26.90;69.30;;;;;;5014841;28;20450;-71
2022/07/13 11:56:54;;;;;;;0.98;0.80;;;27.00;69.40;;;;;;5014679;28;20459;-71
2022/07/13 11:59:35;;;;;;;0.88;0.60;;;26.90;69.20;;;;;;5014339;28;20105;-71
2022/07/13 12:02:07;;;;;;;1.40;0.70;;;27.00;69.10;;;;;;5014314;28;20022;-71
2022/07/13 12:04:32;;;;;;;1.30;0.85;;;26.90;69.30;;;;;;5014770;28;20029;-71
2022/07/13 12:07:12;;;;;;;1.40;0.70;;;26.90;69.30;;;;;;5014624;28;20022;-71
2022/07/13 12:09:52;;;;;;;0.90;0.60;;;26.90;69.10;;;;;;5014670;28;20064;-71
2022/07/13 12:12:21;;;;;;;1.15;0.70;;;27.00;69.30;;;;;;5014175;28;20487;-71
2022/07/13 12:14:47;;;;;;;1.00;0.70;;;27.00;69.40;;;;;;5014459;28;20411;-71
2022/07/13 12:17:13;;;;;;;2.40;0.57;;;27.00;69.40;;;;;;5014334;28;20025;-71
2022/07/13 12:19:39;;;;;;;0.70;0.52;;;27.00;69.30;;;;;;5014363;28;20034;-71
2022/07/13 12:22:06;;;;;;;1.52;0.68;;;27.00;69.40;;;;;;5013611;28;20080;-71
2022/07/13 12:24:31;;;;;;;1.25;0.63;;;27.00;69.30;;;;;;5014129;28;20065;-72
2022/07/13 12:26:57;;;;;;;0.90;0.73;;;27.00;69.30;;;;;;5014224;28;20431;-71
2022/07/13 12:29:30;;;;;;;1.75;0.82;;;27.00;69.30;;;;;;4996517;28;20037;-71
2022/07/13 12:32:00;;;;;;;1.17;0.85;;;27.10;69.30;;;;;;5013906;28;20026;-71
2022/07/13 12:34:25;;;;;;;1.25;0.60;;;27.00;69.30;;;;;;5014169;28;20022;-71
2022/07/13 12:36:51;;;;;;;1.23;0.80;;;27.10;69.30;;;;;;5013986;28;20029;-71
2022/07/13 12:39:36;;;;;;;1.05;0.55;;;27.00;69.30;;;;;;5013712;28;20376;-71
2022/07/13 12:42:02;;;;;;;1.05;0.60;;;27.10;69.00;;;;;;5012291;28;20208;-71
2022/07/13 12:44:32;;;;;;;0.80;0.60;;;27.10;69.30;;;;;;5013994;28;20044;-71
2022/07/13 12:46:59;;;;;;;0.75;0.60;;;27.10;69.20;;;;;;5013963;28;20018;-71
2022/07/13 12:49:38;;;;;;;0.82;0.75;;;27.10;69.20;;;;;;5013965;28;20034;-71
2022/07/13 12:52:05;;;;;;;1.13;0.77;;;27.10;69.10;;;;;;4995953;28;20014;-71
2022/07/13 12:54:54;;;;;;;1.10;0.80;;;27.10;69.20;;;;;;5014054;28;20030;-71
2022/07/13 12:57:24;;;;;;;0.93;0.65;;;27.10;68.90;;;;;;5013406;28;20085;-72
2022/07/13 13:00:08;;;;;;;0.85;0.60;;;27.10;69.30;;;;;;5013777;28;20061;-71
2022/07/13 13:02:35;;;;;;;1.08;0.80;;;27.20;69.20;;;;;;4996318;28;20084;-71
2022/07/13 13:05:01;;;;;;;1.20;0.80;;;27.10;69.20;;;;;;5013971;28;20030;-72